Woodland, NC (27897)

3:40 PM EST on December 07, 2016 (GMT -0500)
Ashley's Grove | | Change Station

Elev 65 ft 36.38 °N, 77.19 °W | Updated 8 seconds ago

Clear
Clear
55.5 °F
Feels Like 55.5 °F
N
2.0
Wind Variable Wind from NW
Gusts 4.0 mph

Today
High -- | Low -- °F
--% Chance of Precip.
Yesterday
High -- | Low -- °F
Precip. -- in
Pressure 30.04 in
Visibility 10.0 miles
Clouds Clear
Dew Point 43 °F
Humidity 63%
Rainfall 0.00 in
Snow Depth Not available.
7:07 AM 4:53 PM
First Quarter, 55% visible
METAR KASJ 072025Z AUTO 00000KT 10SM CLR 12/06 A3004 RMK AO2 T01190056
Pressure 30.04 in
Visibility 10.0 miles
Clouds Clear
Dew Point 43 °F
Humidity 63%
Rainfall 0.00 in
Snow Depth Not available.
7:07 AM 4:53 PM
First Quarter, 55% visible
METAR KASJ 072025Z AUTO 00000KT 10SM CLR 12/06 A3004 RMK AO2 T01190056

10-Day Weather Forecast

Almanac

Astronomy

Dec. 07, 2016 Rise Set
Actual Time
Civil Twilight
Nautical Twilight
Astronomical Twilight
Moon
Length of Visible Light
Length of Day
Tomorrow will be .
, % of the Moon is Illuminated

Today's Extremes

State Highs State Lows

Community

WunderPhotos

Upload Photos

1,956,170 photos uploaded!

WunderBlog® & News

Nearby

Air Quality

  Air Quality AQ Index Pollutant
Not available.

Snow Depth

Station Depth Elevation

Earthquake Activity

City Distance Mag. Time & Date
Minimum magnitude displayed is 2.5.

Coastal Water Temperatures

Place Temperature

Stations

Nearby Weather Stations

Station Location Temp. Windchill Dew Point Humidity Wind Precip. Elev Updated Type
                   

Watches & Warnings

There are currently no watches in effect.